Time;durP1;ratioP1;P1;durP2;ratioP2;P2;SDS_P1;SDS_P2;PMS_P1;PMS_P2;Temp;Humidity;BMP_temperature;BMP_pressure;BME280_temperature;BME280_humidity;BME280_pressure;Samples;Min_cycle;Max_cycle;Signal;HPM_P1;HPM_P2
2022/10/26 00:01:07;;;;;;;6.40;4.60;;;11.90;99.90;;;;;;4998141;28;20541;-45
2022/10/26 00:03:35;;;;;;;5.17;3.80;;;12.00;99.90;;;;;;4991946;28;20455;-45
2022/10/26 00:06:06;;;;;;;6.97;4.17;;;11.90;99.90;;;;;;4998110;28;20446;-46
2022/10/26 00:08:36;;;;;;;6.93;4.40;;;11.90;99.90;;;;;;4998350;28;20482;-39
2022/10/26 00:11:03;;;;;;;7.07;3.63;;;12.60;99.90;;;;;;4998051;28;20461;-50
2022/10/26 00:13:31;;;;;;;7.43;4.43;;;11.80;99.90;;;;;;4997842;28;20511;-49
2022/10/26 00:15:58;;;;;;;5.10;4.33;;;11.80;99.90;;;;;;4997425;28;20473;-46
2022/10/26 00:18:25;;;;;;;7.50;3.80;;;11.80;99.90;;;;;;4997607;28;20454;-48
2022/10/26 00:20:52;;;;;;;11.47;4.60;;;11.80;99.90;;;;;;4989448;28;20496;-46
2022/10/26 00:23:19;;;;;;;17.33;5.00;;;11.80;99.90;;;;;;4998189;28;20447;-53
2022/10/26 00:25:53;;;;;;;7.00;4.60;;;11.80;99.90;;;;;;4997715;28;20514;-44
2022/10/26 00:28:20;;;;;;;6.37;4.73;;;11.80;99.90;;;;;;4991248;28;20470;-47
2022/10/26 00:30:48;;;;;;;6.87;4.67;;;11.80;99.90;;;;;;4991262;28;20459;-49
2022/10/26 00:33:15;;;;;;;11.03;4.17;;;11.90;99.90;;;;;;4997895;28;20451;-48
2022/10/26 00:35:42;;;;;;;5.33;3.50;;;11.90;99.90;;;;;;4997394;28;20451;-58
2022/10/26 00:38:09;;;;;;;5.80;3.67;;;11.80;99.90;;;;;;4997405;28;20443;-48
2022/10/26 00:40:43;;;;;;;6.33;4.40;;;11.90;99.90;;;;;;4989974;28;20494;-45
2022/10/26 00:43:15;;;;;;;5.80;4.10;;;11.80;99.90;;;;;;4988932;28;20427;-48
2022/10/26 00:45:52;;;;;;;8.50;4.93;;;11.80;99.90;;;;;;4997034;28;20450;-47
2022/10/26 00:48:28;;;;;;;13.20;4.17;;;11.70;99.90;;;;;;4996992;28;20418;-46
2022/10/26 00:50:56;;;;;;;7.53;3.83;;;11.70;99.90;;;;;;4997505;28;20446;-44
2022/10/26 00:53:23;;;;;;;7.53;4.67;;;11.60;99.90;;;;;;4997192;28;20439;-45
2022/10/26 00:55:54;;;;;;;6.47;3.97;;;11.70;99.90;;;;;;4997418;28;20430;-44
2022/10/26 00:58:22;;;;;;;4.13;3.73;;;11.70;99.90;;;;;;4996791;28;20457;-43
2022/10/26 01:00:51;;;;;;;5.77;4.07;;;11.60;99.90;;;;;;4997150;28;20498;-46
2022/10/26 01:03:18;;;;;;;9.43;4.90;;;11.70;99.90;;;;;;4997671;28;20502;-45
2022/10/26 01:05:46;;;;;;;5.93;4.40;;;11.60;99.90;;;;;;4996776;28;20474;-48
2022/10/26 01:08:14;;;;;;;11.17;4.40;;;11.60;99.90;;;;;;4997344;28;20449;-46
2022/10/26 01:10:42;;;;;;;10.40;4.37;;;11.60;99.90;;;;;;4997396;28;20530;-47
2022/10/26 01:13:10;;;;;;;7.27;3.90;;;11.60;99.90;;;;;;4997155;28;20493;-46
2022/10/26 01:15:46;;;;;;;8.23;4.17;;;11.60;99.90;;;;;;4997598;28;20487;-51
2022/10/26 01:18:21;;;;;;;6.43;3.80;;;11.60;99.90;;;;;;4996814;28;20427;-46
2022/10/26 01:21:14;;;;;;;5.20;3.63;;;11.50;99.90;;;;;;4996475;28;20435;-46
2022/10/26 01:23:59;;;;;;;7.10;3.50;;;11.60;99.90;;;;;;4986671;28;20466;-46
2022/10/26 01:26:46;;;;;;;5.93;3.83;;;11.60;99.90;;;;;;4996882;28;20423;-43
2022/10/26 01:29:45;;;;;;;5.83;3.83;;;11.50;99.90;;;;;;4996424;28;20474;-43
2022/10/26 01:32:16;;;;;;;9.17;3.50;;;11.50;99.90;;;;;;4995834;28;20427;-46
2022/10/26 01:34:48;;;;;;;7.77;4.53;;;11.40;99.90;;;;;;4997165;28;20527;-46
2022/10/26 01:37:23;;;;;;;5.83;3.70;;;11.40;99.90;;;;;;4996695;28;20421;-49
2022/10/26 01:39:53;;;;;;;15.03;4.87;;;11.40;99.90;;;;;;4996318;28;20522;-47
2022/10/26 01:42:25;;;;;;;5.33;3.97;;;11.40;99.90;;;;;;4996630;28;20461;-51
2022/10/26 01:44:56;;;;;;;4.90;4.33;;;11.30;99.90;;;;;;4997005;28;20427;-53
2022/10/26 01:47:29;;;;;;;7.93;5.30;;;11.40;99.90;;;;;;4996739;28;20467;-42
2022/10/26 01:49:58;;;;;;;7.30;4.57;;;11.30;99.90;;;;;;4996835;28;20510;-47
2022/10/26 01:52:25;;;;;;;8.87;4.70;;;11.30;99.90;;;;;;4990215;28;20424;-52
2022/10/26 01:54:59;;;;;;;10.10;5.07;;;11.30;99.90;;;;;;4996454;28;20522;-44
2022/10/26 01:57:26;;;;;;;12.37;4.03;;;11.30;99.90;;;;;;4996323;28;20450;-48
2022/10/26 02:00:05;;;;;;;5.07;4.30;;;11.30;99.90;;;;;;4996686;28;20555;-49
2022/10/26 02:03:03;;;;;;;7.03;4.67;;;11.30;99.90;;;;;;4990818;28;20497;-45
2022/10/26 02:05:44;;;;;;;4.03;3.50;;;11.30;99.90;;;;;;4996072;28;20502;-54
2022/10/26 02:08:26;;;;;;;6.20;4.50;;;11.20;99.90;;;;;;4996545;28;20415;-44
2022/10/26 02:11:06;;;;;;;8.77;4.30;;;11.20;99.90;;;;;;4996308;28;20458;-46
2022/10/26 02:13:42;;;;;;;8.40;4.50;;;11.30;99.90;;;;;;4995851;28;20422;-44
2022/10/26 02:16:19;;;;;;;7.50;4.60;;;11.30;99.90;;;;;;4996498;28;20522;-42
2022/10/26 02:18:54;;;;;;;8.47;4.60;;;11.30;99.90;;;;;;4996533;28;20437;-49
2022/10/26 02:21:27;;;;;;;6.57;4.07;;;11.20;99.90;;;;;;4995911;28;20477;-46
2022/10/26 02:23:56;;;;;;;6.17;3.73;;;11.20;99.90;;;;;;4995845;28;20498;-48
2022/10/26 02:26:28;;;;;;;4.67;4.13;;;11.20;99.90;;;;;;4995755;28;20533;-54
2022/10/26 02:29:00;;;;;;;7.17;5.90;;;11.20;99.90;;;;;;4995325;28;20454;-54
2022/10/26 02:31:30;;;;;;;4.83;3.60;;;11.30;99.90;;;;;;4995658;28;20423;-50
2022/10/26 02:34:02;;;;;;;10.13;4.50;;;11.30;99.90;;;;;;4995536;28;20827;-48
2022/10/26 02:36:33;;;;;;;7.37;4.63;;;11.30;99.90;;;;;;4995240;28;20565;-41
2022/10/26 02:39:01;;;;;;;8.50;5.17;;;11.30;99.90;;;;;;4995455;28;20435;-48
2022/10/26 02:41:29;;;;;;;10.50;5.70;;;11.20;99.90;;;;;;4995820;28;20483;-42
2022/10/26 02:44:04;;;;;;;8.83;5.10;;;11.20;99.90;;;;;;4997534;28;20446;-47
2022/10/26 02:46:31;;;;;;;9.00;4.70;;;11.20;99.90;;;;;;4999266;28;20434;-43
2022/10/26 02:48:59;;;;;;;6.70;4.03;;;11.20;99.90;;;;;;4991480;28;20461;-42
2022/10/26 02:51:33;;;;;;;7.67;4.30;;;11.10;99.90;;;;;;4999387;28;20510;-46
2022/10/26 02:54:07;;;;;;;6.83;4.33;;;11.10;99.90;;;;;;4999557;28;20477;-48
2022/10/26 02:56:41;;;;;;;5.43;4.23;;;11.10;99.90;;;;;;4999708;28;20491;-43
2022/10/26 02:59:11;;;;;;;6.97;4.27;;;11.10;99.90;;;;;;4999887;28;20431;-41
2022/10/26 03:01:38;;;;;;;4.00;3.43;;;11.10;99.90;;;;;;4991030;28;20498;-41
2022/10/26 03:04:07;;;;;;;7.17;4.70;;;11.10;99.90;;;;;;4998525;28;20442;-43
2022/10/26 03:06:34;;;;;;;9.47;5.43;;;11.10;99.90;;;;;;4999021;28;20475;-49
2022/10/26 03:09:02;;;;;;;6.23;4.00;;;11.10;99.90;;;;;;4999005;28;20434;-48
2022/10/26 03:11:29;;;;;;;7.97;4.13;;;11.10;99.90;;;;;;4999148;28;20458;-43
2022/10/26 03:13:56;;;;;;;6.87;4.43;;;11.00;99.90;;;;;;4998789;28;20450;-46
2022/10/26 03:16:25;;;;;;;5.90;3.97;;;11.10;99.90;;;;;;4998743;28;20457;-48
2022/10/26 03:18:52;;;;;;;5.13;3.70;;;11.10;99.90;;;;;;5037359;23;20485;-53
2022/10/26 03:21:20;;;;;;;7.20;3.60;;;11.00;99.90;;;;;;4988818;28;20438;-47
2022/10/26 03:23:49;;;;;;;6.83;4.33;;;11.00;99.90;;;;;;4998780;28;20481;-51
2022/10/26 03:26:16;;;;;;;6.97;4.27;;;11.00;99.90;;;;;;4998388;28;20446;-52
2022/10/26 03:28:44;;;;;;;9.00;4.17;;;11.00;99.90;;;;;;4991847;28;20450;-49
2022/10/26 03:31:11;;;;;;;8.63;3.87;;;11.00;99.90;;;;;;4998095;28;20466;-53
2022/10/26 03:33:38;;;;;;;7.00;4.27;;;10.90;99.90;;;;;;4997971;28;20447;-48
2022/10/26 03:36:05;;;;;;;8.20;4.80;;;11.00;99.90;;;;;;4998194;28;20516;-53
2022/10/26 03:38:37;;;;;;;6.03;3.53;;;11.00;99.90;;;;;;4998513;28;20447;-50
2022/10/26 03:41:04;;;;;;;4.97;3.53;;;11.00;99.90;;;;;;4997802;28;20510;-50
2022/10/26 03:43:31;;;;;;;5.97;4.67;;;10.90;99.90;;;;;;4997443;28;20493;-52
2022/10/26 03:45:57;;;;;;;6.10;3.80;;;10.90;99.90;;;;;;4997655;28;20820;-48
2022/10/26 03:48:24;;;;;;;5.80;4.43;;;10.90;99.90;;;;;;4997580;28;20443;-48
2022/10/26 03:50:51;;;;;;;4.27;3.40;;;10.90;99.90;;;;;;4997877;28;20494;-49
2022/10/26 03:53:18;;;;;;;10.80;5.27;;;10.90;99.90;;;;;;4997048;28;20446;-51
2022/10/26 03:55:46;;;;;;;6.80;3.70;;;10.80;99.90;;;;;;4996599;28;20462;-45
2022/10/26 03:58:13;;;;;;;4.90;4.10;;;10.80;99.90;;;;;;4997225;28;20453;-51
2022/10/26 04:00:39;;;;;;;5.23;4.27;;;10.90;99.90;;;;;;4996772;28;20456;-51
2022/10/26 04:03:08;;;;;;;7.43;3.70;;;10.80;99.90;;;;;;4997210;28;20490;-50
2022/10/26 04:05:35;;;;;;;5.30;4.67;;;10.80;99.90;;;;;;4997388;28;20443;-49
2022/10/26 04:08:02;;;;;;;7.33;4.60;;;10.90;99.90;;;;;;4996643;28;20467;-52
2022/10/26 04:10:29;;;;;;;4.37;3.53;;;10.90;99.90;;;;;;4997140;28;20992;-49
2022/10/26 04:13:00;;;;;;;5.47;3.83;;;10.90;99.90;;;;;;4996575;28;20584;-49
2022/10/26 04:15:27;;;;;;;5.13;3.73;;;11.00;99.90;;;;;;4996547;28;20446;-49
2022/10/26 04:17:58;;;;;;;11.03;5.23;;;11.00;99.90;;;;;;4996632;28;20447;-53
2022/10/26 04:20:28;;;;;;;8.07;3.90;;;11.00;99.90;;;;;;4996742;28;20474;-55
2022/10/26 04:23:00;;;;;;;5.43;4.13;;;11.00;99.90;;;;;;4996674;28;20489;-49
2022/10/26 04:25:27;;;;;;;8.07;4.43;;;10.90;99.90;;;;;;4996378;28;20475;-55
2022/10/26 04:27:54;;;;;;;6.63;3.03;;;10.90;99.90;;;;;;4988556;28;20439;-52
2022/10/26 04:30:22;;;;;;;5.67;3.37;;;10.90;99.90;;;;;;4996638;28;20518;-55
2022/10/26 04:32:49;;;;;;;4.93;3.43;;;10.90;99.90;;;;;;4996370;28;20453;-48
2022/10/26 04:35:18;;;;;;;6.50;3.53;;;10.90;99.90;;;;;;4996190;28;20506;-50
2022/10/26 04:37:45;;;;;;;5.20;3.40;;;10.90;99.90;;;;;;4996332;28;20519;-50
2022/10/26 04:40:12;;;;;;;7.10;3.60;;;10.90;99.90;;;;;;4995998;28;20442;-53
2022/10/26 04:42:42;;;;;;;5.37;4.30;;;10.90;99.90;;;;;;4988312;28;21007;-48
2022/10/26 04:45:10;;;;;;;3.50;3.20;;;10.90;99.90;;;;;;4996741;28;20583;-48
2022/10/26 04:47:38;;;;;;;4.50;3.50;;;10.90;99.90;;;;;;4995647;28;20447;-54
2022/10/26 04:50:06;;;;;;;5.13;2.97;;;10.90;99.90;;;;;;4988267;28;20495;-51
2022/10/26 04:52:33;;;;;;;4.93;4.07;;;10.80;99.90;;;;;;4987918;28;20910;-52
2022/10/26 04:55:00;;;;;;;8.17;4.03;;;10.80;99.90;;;;;;4992960;28;20462;-51
2022/10/26 04:57:27;;;;;;;10.47;4.70;;;10.80;99.90;;;;;;4997062;28;20770;-53
2022/10/26 04:59:54;;;;;;;7.93;4.30;;;10.80;99.90;;;;;;4997230;28;20491;-54
2022/10/26 05:02:22;;;;;;;8.10;4.57;;;10.80;99.90;;;;;;4996684;28;20482;-51
2022/10/26 05:04:50;;;;;;;6.30;3.90;;;10.80;99.90;;;;;;4990341;28;20454;-51
2022/10/26 05:07:17;;;;;;;4.97;3.87;;;10.80;99.90;;;;;;4995660;28;20453;-55
2022/10/26 05:09:44;;;;;;;5.30;3.90;;;10.80;99.90;;;;;;4995724;28;20443;-48
2022/10/26 05:12:10;;;;;;;6.03;4.47;;;10.70;99.90;;;;;;4995571;28;20450;-52
2022/10/26 05:14:37;;;;;;;5.93;4.47;;;10.70;99.90;;;;;;4995624;28;20473;-52
2022/10/26 05:17:04;;;;;;;7.10;4.10;;;10.70;99.90;;;;;;4996316;28;20430;-52
2022/10/26 05:19:32;;;;;;;7.27;4.87;;;10.70;99.90;;;;;;4995283;28;20516;-56
2022/10/26 05:22:01;;;;;;;7.97;4.53;;;10.70;99.90;;;;;;4995915;28;20986;-55
2022/10/26 05:24:27;;;;;;;8.87;5.27;;;10.70;99.90;;;;;;4988838;28;20490;-53
2022/10/26 05:26:54;;;;;;;6.23;4.20;;;10.80;99.90;;;;;;4995113;28;20474;-53
2022/10/26 05:29:21;;;;;;;7.00;4.50;;;10.80;99.90;;;;;;4996090;28;20439;-54
2022/10/26 05:31:51;;;;;;;5.17;3.50;;;10.70;99.90;;;;;;4996275;28;20529;-56
2022/10/26 05:34:17;;;;;;;5.93;4.40;;;10.80;99.90;;;;;;4988550;28;20454;-47
2022/10/26 05:36:44;;;;;;;5.83;3.60;;;10.70;99.90;;;;;;4992517;28;20457;-50
2022/10/26 05:39:12;;;;;;;10.57;5.43;;;10.70;99.90;;;;;;4989314;28;20543;-54
2022/10/26 05:41:39;;;;;;;10.40;4.00;;;10.70;99.90;;;;;;4985875;28;20446;-51
2022/10/26 05:44:06;;;;;;;8.80;4.50;;;10.70;99.90;;;;;;4995332;28;20501;-54
2022/10/26 05:46:33;;;;;;;6.87;5.37;;;10.70;99.90;;;;;;4995131;28;20449;-53
2022/10/26 05:48:59;;;;;;;8.30;4.37;;;10.70;99.90;;;;;;4995671;28;20506;-49
2022/10/26 05:51:26;;;;;;;11.90;4.77;;;10.70;99.90;;;;;;4996531;28;20523;-50
2022/10/26 05:53:54;;;;;;;5.90;4.00;;;10.70;99.90;;;;;;4996281;28;20438;-52
2022/10/26 05:56:44;;;;;;;8.83;4.80;;;10.70;99.90;;;;;;4995758;28;20447;-54
2022/10/26 05:59:13;;;;;;;8.50;4.33;;;10.70;99.90;;;;;;4996828;28;20431;-56
2022/10/26 06:01:57;;;;;;;8.13;5.20;;;10.70;99.90;;;;;;4988895;28;20502;-55
2022/10/26 06:04:37;;;;;;;6.10;4.40;;;10.60;99.90;;;;;;4996065;28;20475;-51
2022/10/26 06:07:09;;;;;;;7.10;4.37;;;10.60;99.90;;;;;;4996347;28;20435;-54
2022/10/26 06:09:36;;;;;;;5.07;3.90;;;10.60;99.90;;;;;;4995751;28;20546;-55
2022/10/26 06:12:06;;;;;;;5.83;4.00;;;10.60;99.90;;;;;;4991754;28;20534;-56
2022/10/26 06:14:33;;;;;;;6.83;4.30;;;10.60;99.90;;;;;;4993581;28;20481;-52
2022/10/26 06:17:35;;;;;;;7.70;4.90;;;10.60;99.90;;;;;;4995788;28;20453;-53
2022/10/26 06:20:22;;;;;;;8.00;5.00;;;10.60;99.90;;;;;;4991921;28;20455;-53
2022/10/26 06:23:00;;;;;;;6.90;4.80;;;10.70;99.90;;;;;;4995997;28;20485;-50
2022/10/26 06:25:36;;;;;;;13.13;7.07;;;10.60;99.90;;;;;;4995977;28;20503;-49
2022/10/26 06:28:22;;;;;;;14.90;7.00;;;10.60;99.90;;;;;;4995925;28;20466;-52
2022/10/26 06:30:49;;;;;;;10.97;6.80;;;10.70;99.90;;;;;;4995839;28;20423;-55
2022/10/26 06:33:16;;;;;;;12.20;7.73;;;10.70;99.90;;;;;;4996002;28;20430;-43
2022/10/26 06:35:52;;;;;;;15.53;7.90;;;10.70;99.90;;;;;;4995736;28;20437;-50
2022/10/26 06:38:21;;;;;;;17.70;8.57;;;10.70;99.90;;;;;;4995988;28;20505;-55
2022/10/26 06:40:52;;;;;;;13.97;7.53;;;10.70;99.90;;;;;;4995934;28;20442;-51
2022/10/26 06:43:25;;;;;;;11.33;6.20;;;10.70;99.90;;;;;;4996294;28;20467;-50
2022/10/26 06:46:03;;;;;;;13.63;7.00;;;10.70;99.90;;;;;;4996221;28;20526;-55
2022/10/26 06:48:39;;;;;;;13.60;7.03;;;10.80;99.90;;;;;;4996353;28;20445;-52
2022/10/26 06:51:12;;;;;;;17.63;7.50;;;10.80;99.90;;;;;;4995985;28;20430;-51
2022/10/26 06:53:43;;;;;;;14.97;7.50;;;10.80;99.90;;;;;;4995726;28;20411;-50
2022/10/26 06:56:13;;;;;;;22.50;6.63;;;10.80;99.90;;;;;;4995353;28;20431;-48
2022/10/26 06:58:42;;;;;;;10.93;5.27;;;10.90;99.90;;;;;;4995206;28;20466;-55
2022/10/26 07:01:11;;;;;;;12.13;6.30;;;10.90;99.90;;;;;;4995902;28;20435;-52
2022/10/26 07:03:38;;;;;;;10.30;6.43;;;10.90;99.90;;;;;;4995264;28;20483;-47
2022/10/26 07:06:05;;;;;;;11.60;5.03;;;10.90;99.90;;;;;;4995923;28;20451;-54
2022/10/26 07:08:32;;;;;;;9.97;6.20;;;11.00;99.90;;;;;;4996075;28;20453;-55
2022/10/26 07:10:59;;;;;;;9.37;5.13;;;11.00;99.90;;;;;;4995298;28;20513;-52
2022/10/26 07:13:26;;;;;;;13.13;6.70;;;11.10;99.90;;;;;;4995286;28;20518;-52
2022/10/26 07:15:54;;;;;;;12.23;6.53;;;11.10;99.90;;;;;;4995562;28;20446;-52
2022/10/26 07:18:20;;;;;;;13.63;6.97;;;11.10;99.90;;;;;;4995088;28;20446;-51
2022/10/26 07:20:47;;;;;;;10.43;5.97;;;11.10;99.90;;;;;;4995293;28;20457;-49
2022/10/26 07:23:14;;;;;;;13.27;6.47;;;11.20;99.90;;;;;;4995104;28;20490;-54
2022/10/26 07:25:41;;;;;;;8.97;5.80;;;11.20;99.90;;;;;;4995282;28;20454;-51
2022/10/26 07:28:10;;;;;;;9.47;5.20;;;11.20;99.90;;;;;;4995504;28;20439;-48
2022/10/26 07:30:37;;;;;;;10.23;6.23;;;11.30;99.90;;;;;;4997520;28;20514;-50
2022/10/26 07:33:08;;;;;;;11.50;6.67;;;11.30;99.90;;;;;;4999049;28;20422;-55
2022/10/26 07:35:35;;;;;;;10.73;5.37;;;11.40;99.90;;;;;;4999438;28;20477;-55
2022/10/26 07:38:02;;;;;;;9.20;6.10;;;11.40;99.90;;;;;;4999149;28;20461;-52
2022/10/26 07:40:29;;;;;;;12.43;6.43;;;11.40;99.90;;;;;;4999205;28;20431;-55
2022/10/26 07:43:00;;;;;;;7.03;4.67;;;11.50;99.90;;;;;;4998916;28;20478;-54
2022/10/26 07:45:27;;;;;;;10.13;4.97;;;11.50;99.90;;;;;;4998824;28;20514;-52
2022/10/26 07:47:54;;;;;;;10.90;5.80;;;11.60;99.90;;;;;;4998655;28;20470;-51
2022/10/26 07:50:23;;;;;;;11.53;5.97;;;11.60;99.90;;;;;;4998658;28;20473;-50
2022/10/26 07:52:50;;;;;;;7.83;5.00;;;11.60;99.90;;;;;;4998378;28;20470;-47
2022/10/26 07:55:17;;;;;;;8.40;6.20;;;11.70;99.90;;;;;;4998702;28;20519;-50
2022/10/26 07:57:44;;;;;;;16.63;5.87;;;11.70;99.90;;;;;;4999259;28;20443;-53
2022/10/26 08:00:12;;;;;;;8.40;6.00;;;11.80;99.90;;;;;;4998810;28;20530;-54
2022/10/26 08:02:39;;;;;;;7.30;5.30;;;11.80;99.90;;;;;;4998653;28;20455;-50
2022/10/26 08:05:06;;;;;;;9.30;5.50;;;11.90;99.90;;;;;;4998499;28;20457;-55
2022/10/26 08:07:40;;;;;;;8.77;5.83;;;12.00;99.90;;;;;;4998537;28;20437;-63
2022/10/26 08:10:08;;;;;;;8.47;5.40;;;12.00;99.90;;;;;;4998399;28;20557;-50
2022/10/26 08:12:37;;;;;;;8.73;5.00;;;12.10;99.90;;;;;;4998924;28;20518;-52
2022/10/26 08:15:04;;;;;;;8.27;5.30;;;12.20;99.90;;;;;;4999105;28;20502;-54
2022/10/26 08:17:31;;;;;;;9.47;5.83;;;12.20;99.90;;;;;;4999270;28;20451;-52
2022/10/26 08:19:58;;;;;;;9.87;6.07;;;12.30;99.90;;;;;;4999293;28;20518;-55
2022/10/26 08:22:25;;;;;;;9.53;6.53;;;12.40;99.90;;;;;;4999105;28;20442;-52
2022/10/26 08:24:55;;;;;;;9.07;5.77;;;12.40;99.90;;;;;;4998813;28;20493;-56
2022/10/26 08:27:22;;;;;;;10.77;5.20;;;12.50;99.90;;;;;;4998708;28;20482;-53
2022/10/26 08:29:49;;;;;;;9.00;5.90;;;12.60;99.90;;;;;;4998304;28;20439;-55
2022/10/26 08:32:15;;;;;;;8.43;5.43;;;12.60;99.90;;;;;;4997683;28;20427;-52
2022/10/26 08:34:42;;;;;;;9.70;5.40;;;12.70;99.90;;;;;;4998130;28;20454;-49
2022/10/26 08:37:09;;;;;;;15.77;6.63;;;12.70;99.90;;;;;;4998317;28;20474;-49
2022/10/26 08:39:36;;;;;;;10.20;6.10;;;12.80;99.90;;;;;;4987644;28;20478;-53
2022/10/26 08:42:11;;;;;;;9.73;6.23;;;12.90;99.90;;;;;;4997963;28;20482;-49
2022/10/26 08:44:43;;;;;;;11.70;6.63;;;13.00;99.90;;;;;;4997571;28;20454;-53
2022/10/26 08:47:17;;;;;;;9.20;5.97;;;13.10;99.90;;;;;;4997350;28;20475;-54
2022/10/26 08:49:50;;;;;;;12.03;7.43;;;13.20;99.90;;;;;;4993777;28;20526;-46
2022/10/26 08:52:22;;;;;;;11.70;6.73;;;13.30;99.90;;;;;;4998445;28;20419;-45
2022/10/26 08:54:53;;;;;;;11.20;6.33;;;13.40;99.90;;;;;;4998184;28;20477;-52
2022/10/26 08:57:26;;;;;;;9.10;6.50;;;13.50;99.90;;;;;;4998645;28;20439;-47
2022/10/26 08:59:59;;;;;;;10.60;5.23;;;13.60;99.90;;;;;;4994128;28;20423;-52
2022/10/26 09:02:25;;;;;;;11.80;6.43;;;13.70;99.90;;;;;;4997676;28;20526;-52
2022/10/26 09:04:54;;;;;;;9.40;6.00;;;13.80;99.90;;;;;;4998421;28;20498;-49
2022/10/26 09:07:35;;;;;;;7.33;6.17;;;13.90;99.90;;;;;;4997677;28;20551;-52
2022/10/26 09:10:16;;;;;;;10.07;4.60;;;14.10;99.90;;;;;;4997866;28;20450;-52
2022/10/26 09:12:51;;;;;;;13.77;6.97;;;14.20;99.90;;;;;;4994435;28;20463;-52
2022/10/26 09:15:27;;;;;;;8.23;5.67;;;14.40;99.90;;;;;;4997751;28;20419;-50
2022/10/26 09:18:01;;;;;;;8.17;5.70;;;14.60;99.90;;;;;;4997382;28;20542;-51
2022/10/26 09:20:51;;;;;;;8.20;5.20;;;14.90;99.90;;;;;;4992776;28;20493;-48
2022/10/26 09:23:32;;;;;;;8.27;5.70;;;15.10;99.90;;;;;;4990644;28;20451;-48
2022/10/26 09:26:00;;;;;;;7.43;5.07;;;15.40;99.90;;;;;;4997650;28;20559;-51
2022/10/26 09:28:34;;;;;;;4.80;4.03;;;16.30;99.90;;;;;;4997208;28;20436;-49
2022/10/26 09:31:04;;;;;;;4.30;3.87;;;17.60;99.90;;;;;;4998140;28;20455;-51
2022/10/26 09:33:36;;;;;;;11.30;5.30;;;19.10;99.90;;;;;;4997885;28;20426;-52
2022/10/26 09:36:07;;;;;;;9.53;4.50;;;20.50;99.90;;;;;;4997397;28;20427;-49
2022/10/26 09:38:39;;;;;;;7.43;3.53;;;21.80;99.90;;;;;;4997714;28;20526;-50
2022/10/26 09:41:17;;;;;;;9.03;4.50;;;22.80;99.90;;;;;;4996562;28;20819;-50
2022/10/26 09:43:49;;;;;;;6.10;4.00;;;23.80;99.90;;;;;;4995425;28;20473;-47
2022/10/26 09:46:22;;;;;;;4.03;3.60;;;24.50;99.90;;;;;;4996353;28;20442;-48
2022/10/26 09:48:53;;;;;;;5.33;4.30;;;25.10;99.90;;;;;;4995729;28;20491;-45
2022/10/26 09:51:22;;;;;;;9.83;4.40;;;25.30;99.30;;;;;;4997114;28;20498;-49
2022/10/26 09:53:49;;;;;;;5.23;4.17;;;25.60;97.00;;;;;;4996283;28;20443;-46
2022/10/26 09:56:17;;;;;;;5.80;4.63;;;26.00;95.20;;;;;;4996897;28;20443;-50
2022/10/26 09:58:50;;;;;;;3.70;3.40;;;26.30;93.70;;;;;;4996802;28;20482;-49
2022/10/26 10:01:31;;;;;;;12.47;4.13;;;26.30;92.10;;;;;;4996330;28;20490;-56
2022/10/26 10:04:18;;;;;;;4.37;3.67;;;26.30;91.20;;;;;;4996024;28;20490;-52
2022/10/26 10:06:48;;;;;;;10.60;3.70;;;26.20;90.60;;;;;;4996360;28;20455;-47
2022/10/26 10:09:17;;;;;;;5.93;4.10;;;26.00;90.90;;;;;;4997354;28;20530;-53
2022/10/26 10:11:53;;;;;;;5.73;4.47;;;26.20;91.30;;;;;;4997314;28;20478;-51
2022/10/26 10:14:23;;;;;;;6.37;3.83;;;26.40;90.00;;;;;;4996511;28;20407;-51
2022/10/26 10:16:55;;;;;;;9.77;4.20;;;26.30;90.20;;;;;;4997174;28;20504;-54
2022/10/26 10:19:27;;;;;;;5.23;3.97;;;26.30;89.90;;;;;;4997072;28;20457;-54
2022/10/26 10:21:59;;;;;;;4.67;4.13;;;26.10;90.20;;;;;;4996816;28;20473;-50
2022/10/26 10:24:28;;;;;;;6.27;4.70;;;25.80;90.40;;;;;;4996927;28;20538;-48
2022/10/26 10:26:59;;;;;;;4.83;3.73;;;26.00;90.20;;;;;;4996698;28;20454;-51
2022/10/26 10:29:28;;;;;;;6.30;4.17;;;25.90;90.00;;;;;;4986763;28;20435;-53
2022/10/26 10:31:57;;;;;;;5.10;3.47;;;25.70;90.40;;;;;;4996024;28;20494;-49
2022/10/26 10:34:24;;;;;;;4.30;3.40;;;25.80;90.30;;;;;;4997214;28;20498;-52
2022/10/26 10:36:51;;;;;;;6.53;5.17;;;25.90;90.10;;;;;;4997055;28;20443;-53
2022/10/26 10:39:39;;;;;;;5.60;3.00;;;25.80;90.40;;;;;;4997030;28;20533;-53
2022/10/26 10:42:15;;;;;;;3.90;3.47;;;25.60;90.60;;;;;;4996996;28;20431;-46
2022/10/26 10:44:46;;;;;;;6.73;3.40;;;25.50;90.80;;;;;;4997028;28;20522;-55
2022/10/26 10:47:21;;;;;;;4.03;3.30;;;25.20;91.40;;;;;;4996770;28;20458;-51
2022/10/26 10:49:53;;;;;;;4.93;2.73;;;25.00;91.90;;;;;;4997026;28;20554;-55
2022/10/26 10:52:26;;;;;;;8.93;4.97;;;24.50;92.30;;;;;;4997232;28;20490;-48
2022/10/26 10:55:03;;;;;;;3.30;2.67;;;24.00;93.30;;;;;;4996849;28;20420;-54
2022/10/26 10:57:39;;;;;;;4.10;2.80;;;23.50;94.50;;;;;;4996526;28;20466;-46
2022/10/26 11:00:10;;;;;;;3.40;2.80;;;23.00;96.70;;;;;;4996876;28;20466;-49
2022/10/26 11:03:01;;;;;;;4.00;2.57;;;22.50;98.70;;;;;;4997012;28;20444;-48
2022/10/26 11:05:52;;;;;;;4.27;2.80;;;22.00;99.90;;;;;;4999637;28;20447;-49
2022/10/26 11:08:23;;;;;;;4.57;2.87;;;21.60;99.90;;;;;;5000932;28;20494;-47
2022/10/26 11:10:53;;;;;;;4.23;2.53;;;21.10;99.90;;;;;;4993408;28;20953;-56
2022/10/26 11:13:24;;;;;;;3.23;2.90;;;20.60;99.90;;;;;;4999272;28;20463;-51
2022/10/26 11:16:00;;;;;;;3.27;2.90;;;20.30;99.90;;;;;;5000401;28;20518;-48
2022/10/26 11:18:33;;;;;;;2.80;2.43;;;20.10;99.90;;;;;;5000172;28;20444;-54
2022/10/26 11:21:07;;;;;;;2.57;2.37;;;19.90;99.90;;;;;;4994310;28;20537;-54
2022/10/26 11:23:38;;;;;;;3.13;2.37;;;19.70;99.90;;;;;;4996194;28;20470;-54
2022/10/26 11:26:11;;;;;;;3.00;2.50;;;19.60;99.90;;;;;;5000110;28;20431;-54
2022/10/26 11:28:46;;;;;;;4.63;2.83;;;19.50;99.90;;;;;;4987884;28;20478;-46
2022/10/26 11:31:20;;;;;;;4.30;2.90;;;19.40;99.90;;;;;;5000110;28;20433;-54
2022/10/26 11:33:57;;;;;;;5.87;3.40;;;19.30;99.90;;;;;;5064742;23;20468;-44
2022/10/26 11:36:29;;;;;;;4.97;2.40;;;19.10;99.90;;;;;;4997468;28;20482;-42
2022/10/26 11:39:01;;;;;;;4.10;2.93;;;18.80;99.90;;;;;;4998042;28;20431;-45
2022/10/26 11:41:34;;;;;;;5.73;2.70;;;18.70;99.90;;;;;;4998158;28;20455;-41
2022/10/26 11:44:09;;;;;;;3.17;2.90;;;18.70;99.90;;;;;;4997732;28;20443;-48
2022/10/26 11:46:41;;;;;;;2.83;2.40;;;18.50;99.90;;;;;;4997571;28;20450;-47
2022/10/26 11:49:14;;;;;;;3.33;2.30;;;18.50;99.90;;;;;;4997713;28;20491;-43
2022/10/26 11:51:46;;;;;;;4.13;2.63;;;18.50;99.90;;;;;;4997498;28;20488;-44
2022/10/26 11:54:19;;;;;;;4.97;3.00;;;18.40;99.90;;;;;;4997737;28;20427;-44
2022/10/26 11:56:48;;;;;;;4.33;2.50;;;18.40;99.90;;;;;;4997582;28;20902;-46
2022/10/26 11:59:20;;;;;;;2.63;2.40;;;18.40;99.90;;;;;;4994808;28;20458;-43
2022/10/26 12:01:51;;;;;;;7.77;2.73;;;18.40;99.90;;;;;;4991571;28;20473;-42
2022/10/26 12:04:20;;;;;;;3.57;2.00;;;18.40;99.90;;;;;;4997782;28;20479;-43
2022/10/26 12:06:49;;;;;;;2.63;2.37;;;18.40;99.90;;;;;;4997861;28;20449;-46
2022/10/26 12:09:20;;;;;;;6.30;1.87;;;18.50;99.90;;;;;;4997840;28;20425;-42
2022/10/26 12:11:53;;;;;;;3.40;2.30;;;18.50;99.90;;;;;;4997493;28;20467;-44
2022/10/26 12:14:24;;;;;;;4.50;2.37;;;18.60;99.90;;;;;;4990201;28;20436;-46
2022/10/26 12:17:00;;;;;;;6.70;2.17;;;18.60;99.90;;;;;;4989011;28;20521;-52
2022/10/26 12:19:33;;;;;;;3.57;2.30;;;18.70;99.90;;;;;;4998157;28;20446;-44
2022/10/26 12:22:00;;;;;;;4.30;2.07;;;18.70;99.90;;;;;;4990533;28;20449;-43
2022/10/26 12:24:32;;;;;;;2.97;2.00;;;18.60;99.90;;;;;;4996964;28;20517;-44
2022/10/26 12:27:06;;;;;;;2.90;2.57;;;18.70;99.90;;;;;;4997986;28;20427;-45
2022/10/26 12:29:36;;;;;;;2.47;2.27;;;18.80;99.90;;;;;;4997724;28;20451;-51
2022/10/26 12:32:20;;;;;;;3.17;1.80;;;18.70;99.90;;;;;;4997393;28;20474;-41
2022/10/26 12:35:02;;;;;;;4.37;2.50;;;18.60;99.90;;;;;;4987840;28;20510;-49
2022/10/26 12:37:34;;;;;;;8.40;2.37;;;18.70;99.90;;;;;;4997470;28;20461;-46
2022/10/26 12:40:40;;;;;;;2.47;2.13;;;18.80;99.90;;;;;;4996713;28;20451;-42
2022/10/26 12:43:38;;;;;;;4.90;2.50;;;18.90;99.90;;;;;;4996752;28;20424;-47
2022/10/26 12:46:42;;;;;;;3.40;2.87;;;19.00;99.90;;;;;;4992653;28;20496;-46
2022/10/26 12:49:39;;;;;;;7.77;2.60;;;18.90;99.90;;;;;;4996827;28;20458;-43
2022/10/26 12:52:37;;;;;;;4.43;3.20;;;18.90;99.90;;;;;;4971348;28;20447;-49
2022/10/26 12:55:38;;;;;;;5.50;2.67;;;18.90;99.90;;;;;;4986884;28;20426;-45
2022/10/26 12:58:52;;;;;;;7.37;2.57;;;18.90;99.90;;;;;;4988528;28;20467;-40
2022/10/26 13:01:36;;;;;;;6.30;2.20;;;19.00;99.90;;;;;;4996267;28;20426;-42
2022/10/26 13:04:20;;;;;;;4.00;2.23;;;19.00;99.90;;;;;;4996672;28;20487;-47
2022/10/26 13:07:25;;;;;;;3.63;2.80;;;19.00;99.90;;;;;;4996474;28;20498;-39
2022/10/26 13:09:59;;;;;;;6.27;2.70;;;19.00;99.90;;;;;;4987252;28;20476;-44